Time;durP1;ratioP1;P1;durP2;ratioP2;P2;SDS_P1;SDS_P2;PMS_P1;PMS_P2;Temp;Humidity;BMP_temperature;BMP_pressure;BME280_temperature;BME280_humidity;BME280_pressure;Samples;Min_cycle;Max_cycle;Signal;HPM_P1;HPM_P2
2023/06/12 00:00:51;;;;;;;11.15;8.23;;;486.80;2380.80;;;;;;5071432;28;20031;-61
2023/06/12 00:03:19;;;;;;;9.15;8.00;;;486.80;2380.80;;;;;;5071476;28;20355;-61
2023/06/12 00:05:45;;;;;;;12.55;9.13;;;486.80;2380.80;;;;;;5071297;28;20434;-61
2023/06/12 00:08:13;;;;;;;9.45;7.97;;;486.70;2380.80;;;;;;5070920;28;20120;-60
2023/06/12 00:10:43;;;;;;;10.68;8.65;;;486.70;2380.80;;;;;;5071237;28;20025;-61
2023/06/12 00:13:09;;;;;;;9.63;8.30;;;486.70;2176.00;;;;;;5070854;28;20025;-61
2023/06/12 00:15:35;;;;;;;9.98;8.95;;;486.60;2380.80;;;;;;5071190;28;20027;-61
2023/06/12 00:18:02;;;;;;;12.00;8.63;;;486.60;2073.60;;;;;;5070831;28;20485;-61
2023/06/12 00:20:28;;;;;;;11.10;9.23;;;486.60;2380.80;;;;;;5070934;28;20025;-62
2023/06/12 00:22:54;;;;;;;10.25;8.23;;;486.70;2380.80;;;;;;5071029;28;20475;-61
2023/06/12 00:25:21;;;;;;;12.30;8.82;;;486.60;2022.40;;;;;;5071015;28;20024;-61
2023/06/12 00:27:46;;;;;;;14.55;9.27;;;486.60;2227.20;;;;;;5070782;28;20129;-61
2023/06/12 00:30:13;;;;;;;11.93;8.88;;;486.60;2380.80;;;;;;5052730;28;20112;-61
2023/06/12 00:32:39;;;;;;;11.60;9.77;;;486.60;2380.80;;;;;;5070386;28;20493;-61
2023/06/12 00:35:05;;;;;;;11.65;9.27;;;486.60;2380.80;;;;;;5070619;28;20032;-63
2023/06/12 00:37:32;;;;;;;14.52;9.68;;;486.50;2380.80;;;;;;5069986;28;20036;-61
2023/06/12 00:39:57;;;;;;;12.38;10.85;;;486.70;2380.80;;;;;;5070665;28;20514;-61
2023/06/12 00:42:29;;;;;;;13.85;10.30;;;486.60;2380.80;;;;;;5070697;28;20038;-61
2023/06/12 00:44:55;;;;;;;13.63;9.68;;;486.60;2380.80;;;;;;5070688;28;20028;-61
2023/06/12 00:47:21;;;;;;;14.27;10.18;;;486.60;2304.00;;;;;;5070224;28;20497;-61
2023/06/12 00:49:48;;;;;;;12.52;9.45;;;486.60;2380.80;;;;;;5070766;28;20878;-62
2023/06/12 00:52:15;;;;;;;12.32;9.82;;;486.60;2150.40;;;;;;5069954;28;20032;-60
2023/06/12 00:54:44;;;;;;;10.68;9.38;;;486.70;2150.40;;;;;;5070192;28;20039;-61
2023/06/12 00:57:11;;;;;;;13.63;11.13;;;486.60;2380.80;;;;;;5069739;28;20104;-62
2023/06/12 00:59:37;;;;;;;14.82;11.23;;;486.60;2278.40;;;;;;5070165;28;20028;-61
2023/06/12 01:02:06;;;;;;;11.90;10.18;;;486.50;2380.80;;;;;;5070083;28;20438;-61
2023/06/12 01:04:33;;;;;;;14.55;11.57;;;486.50;2380.80;;;;;;5069532;28;20024;-62
2023/06/12 01:07:29;;;;;;;12.57;10.90;;;486.50;2380.80;;;;;;5052056;28;20509;-61
2023/06/12 01:10:25;;;;;;;17.42;11.55;;;486.50;2380.80;;;;;;5070111;28;20021;-61
2023/06/12 01:12:52;;;;;;;15.57;11.13;;;486.50;2380.80;;;;;;4988373;28;20141;-61
2023/06/12 01:15:19;;;;;;;13.75;11.02;;;486.50;2380.80;;;;;;4988277;28;20097;-62
2023/06/12 01:17:44;;;;;;;12.93;10.95;;;486.50;2380.80;;;;;;4988238;28;20081;-62
2023/06/12 01:20:12;;;;;;;11.95;9.63;;;486.50;2380.80;;;;;;4988070;28;20034;-61
2023/06/12 01:22:43;;;;;;;15.80;11.38;;;486.50;2380.80;;;;;;4988091;28;20035;-62
2023/06/12 01:25:35;;;;;;;12.52;10.65;;;486.50;2380.80;;;;;;4988000;28;20166;-61
2023/06/12 01:28:53;;;;;;;12.93;9.93;;;486.60;2380.80;;;;;;4988041;28;20046;-61
2023/06/12 01:31:28;;;;;;;13.93;12.02;;;486.70;2201.60;;;;;;4930008;29;20035;-61
2023/06/12 01:34:02;;;;;;;15.52;11.77;;;486.70;2201.60;;;;;;4930104;29;20208;-61
2023/06/12 01:36:36;;;;;;;13.32;10.95;;;486.70;2380.80;;;;;;4917690;29;20052;-62
2023/06/12 01:39:04;;;;;;;17.38;12.68;;;486.70;2380.80;;;;;;4929836;29;20188;-62
2023/06/12 01:41:31;;;;;;;13.70;10.90;;;486.80;2380.80;;;;;;4930158;29;20031;-62
2023/06/12 01:44:06;;;;;;;16.55;12.27;;;486.80;2380.80;;;;;;4929982;29;20110;-64
2023/06/12 01:46:32;;;;;;;18.40;11.88;;;486.70;2252.80;;;;;;4925769;29;20040;-58
2023/06/12 01:48:58;;;;;;;14.80;11.00;;;486.70;2380.80;;;;;;4945188;28;20038;-58
2023/06/12 01:51:23;;;;;;;14.80;11.45;;;486.70;2380.80;;;;;;4973408;28;20034;-58
2023/06/12 01:53:49;;;;;;;16.50;12.52;;;486.80;2380.80;;;;;;4968162;28;20082;-58
2023/06/12 01:56:17;;;;;;;20.65;12.90;;;486.80;2380.80;;;;;;4968474;28;20029;-58
2023/06/12 01:58:44;;;;;;;14.23;11.85;;;486.70;2380.80;;;;;;4977243;28;20081;-58
2023/06/12 02:01:15;;;;;;;19.42;13.77;;;486.60;2380.80;;;;;;4987434;28;20069;-59
2023/06/12 02:03:41;;;;;;;20.42;14.00;;;486.60;2380.80;;;;;;4987225;28;20019;-60
2023/06/12 02:06:07;;;;;;;21.02;14.43;;;486.50;2380.80;;;;;;4987688;28;20112;-59
2023/06/12 02:08:33;;;;;;;20.67;13.95;;;486.50;2380.80;;;;;;5056916;28;20036;-59
2023/06/12 02:10:58;;;;;;;17.35;13.38;;;486.60;2380.80;;;;;;5069207;28;20032;-58
2023/06/12 02:13:24;;;;;;;14.93;12.68;;;486.60;2380.80;;;;;;5068902;28;20459;-57
2023/06/12 02:15:50;;;;;;;17.92;13.02;;;486.70;2380.80;;;;;;5068827;28;20060;-59
2023/06/12 02:18:15;;;;;;;17.77;14.43;;;486.70;2380.80;;;;;;5066532;28;20017;-60
2023/06/12 02:20:42;;;;;;;17.40;12.73;;;486.70;2380.80;;;;;;5058242;28;20024;-60
2023/06/12 02:23:07;;;;;;;13.55;11.85;;;486.80;2380.80;;;;;;5068738;28;20120;-58
2023/06/12 02:25:33;;;;;;;19.80;14.02;;;486.80;2380.80;;;;;;5068984;28;20115;-58
2023/06/12 02:27:59;;;;;;;17.75;13.68;;;486.80;2380.80;;;;;;5069093;28;20103;-58
2023/06/12 02:30:24;;;;;;;17.10;12.70;;;486.80;2355.20;;;;;;5068879;28;20017;-58
2023/06/12 02:32:51;;;;;;;19.67;13.52;;;486.80;2150.40;;;;;;5068107;28;20035;-59
2023/06/12 02:35:17;;;;;;;18.13;12.65;;;486.70;2304.00;;;;;;5068612;28;20044;-58
2023/06/12 02:37:42;;;;;;;17.98;13.13;;;486.70;2380.80;;;;;;5068497;28;20020;-58
2023/06/12 02:40:09;;;;;;;18.58;12.80;;;486.70;2380.80;;;;;;5068769;28;20035;-60
2023/06/12 02:42:35;;;;;;;17.23;12.70;;;486.70;2380.80;;;;;;5068628;28;20016;-60
2023/06/12 02:45:01;;;;;;;19.08;11.55;;;486.80;2380.80;;;;;;5068595;28;20032;-59
2023/06/12 02:47:26;;;;;;;17.30;12.85;;;486.80;2380.80;;;;;;5068645;28;20029;-60
2023/06/12 02:49:52;;;;;;;14.38;11.07;;;486.70;2278.40;;;;;;5068703;28;20111;-59
2023/06/12 02:52:18;;;;;;;19.75;11.45;;;486.70;2073.60;;;;;;5062777;28;20460;-58
2023/06/12 02:54:44;;;;;;;18.55;11.20;;;486.80;2380.80;;;;;;5048751;28;20036;-60
2023/06/12 02:57:10;;;;;;;13.82;11.02;;;486.80;2380.80;;;;;;5048341;28;20579;-58
2023/06/12 02:59:36;;;;;;;16.45;10.77;;;486.70;2380.80;;;;;;5048709;28;20067;-57
2023/06/12 03:02:03;;;;;;;11.15;9.82;;;486.70;2380.80;;;;;;5064786;28;20029;-59
2023/06/12 03:04:29;;;;;;;11.75;9.77;;;486.60;2380.80;;;;;;5068226;28;20111;-58
2023/06/12 03:06:55;;;;;;;17.38;9.93;;;486.60;2380.80;;;;;;5068296;28;20557;-58
2023/06/12 03:09:22;;;;;;;13.45;10.52;;;486.60;2380.80;;;;;;5068431;28;20035;-58
2023/06/12 03:11:49;;;;;;;11.90;10.07;;;486.70;2380.80;;;;;;5068769;28;20023;-58
2023/06/12 03:14:16;;;;;;;16.08;9.38;;;486.60;2380.80;;;;;;5068470;28;20115;-58
2023/06/12 03:16:42;;;;;;;12.13;9.07;;;486.60;2380.80;;;;;;5070153;28;20055;-58
2023/06/12 03:19:08;;;;;;;9.95;7.53;;;486.60;2380.80;;;;;;5071844;28;20880;-58
2023/06/12 03:21:35;;;;;;;10.40;8.20;;;486.60;2380.80;;;;;;5071891;28;20024;-58
2023/06/12 03:24:01;;;;;;;12.63;9.52;;;486.60;2380.80;;;;;;5071781;28;20170;-59
2023/06/12 03:26:30;;;;;;;11.73;9.10;;;486.60;2380.80;;;;;;5072057;28;20540;-58
2023/06/12 03:28:56;;;;;;;12.13;9.30;;;486.60;2380.80;;;;;;5072236;28;20474;-58
2023/06/12 03:31:25;;;;;;;11.85;8.38;;;486.60;2380.80;;;;;;5071667;28;20096;-59
2023/06/12 03:33:51;;;;;;;12.88;9.10;;;486.50;2380.80;;;;;;5071485;28;20114;-59
2023/06/12 03:36:16;;;;;;;11.27;9.63;;;486.60;2380.80;;;;;;5071786;28;20090;-59
2023/06/12 03:38:42;;;;;;;11.70;9.27;;;486.70;2380.80;;;;;;5071927;28;20102;-57
2023/06/12 03:41:08;;;;;;;10.60;9.05;;;486.90;2380.80;;;;;;5072027;28;20052;-57
2023/06/12 03:43:33;;;;;;;13.10;9.43;;;486.70;2380.80;;;;;;5071533;28;20359;-58
2023/06/12 03:45:59;;;;;;;12.65;9.77;;;486.80;2380.80;;;;;;5071526;28;20025;-60
2023/06/12 03:48:25;;;;;;;12.00;8.80;;;486.80;2380.80;;;;;;5071531;28;20035;-59
2023/06/12 03:50:51;;;;;;;11.82;8.98;;;486.80;2380.80;;;;;;5071603;28;20033;-59
2023/06/12 03:53:16;;;;;;;14.02;8.95;;;486.80;2380.80;;;;;;5071563;28;20103;-58
2023/06/12 03:55:43;;;;;;;11.30;8.93;;;486.70;2380.80;;;;;;5071395;28;20054;-59
2023/06/12 03:58:08;;;;;;;10.55;8.65;;;486.70;2380.80;;;;;;5071230;28;20031;-58
2023/06/12 04:00:34;;;;;;;12.35;8.57;;;486.80;2380.80;;;;;;5071663;28;20028;-57
2023/06/12 04:03:01;;;;;;;10.95;9.82;;;486.80;2380.80;;;;;;5071182;28;20021;-60
2023/06/12 04:05:26;;;;;;;11.85;10.18;;;486.80;2380.80;;;;;;5071216;28;20028;-60
2023/06/12 04:07:52;;;;;;;11.43;9.38;;;486.80;2380.80;;;;;;5070961;28;20383;-59
2023/06/12 04:10:18;;;;;;;14.35;9.98;;;486.70;2380.80;;;;;;5071363;28;20016;-60
2023/06/12 04:12:44;;;;;;;11.77;9.52;;;486.70;2380.80;;;;;;5071517;28;20036;-60
2023/06/12 04:15:10;;;;;;;12.10;9.32;;;486.80;2380.80;;;;;;5070551;28;20112;-59
2023/06/12 04:17:36;;;;;;;12.30;9.80;;;486.80;2380.80;;;;;;5071166;28;20063;-60
2023/06/12 04:20:02;;;;;;;14.48;10.27;;;486.80;2380.80;;;;;;5070692;28;20099;-59
2023/06/12 04:22:29;;;;;;;14.20;10.27;;;486.80;2380.80;;;;;;5071183;28;20111;-58
2023/06/12 04:24:59;;;;;;;11.77;9.43;;;486.80;2380.80;;;;;;5071093;28;20027;-59
2023/06/12 04:27:25;;;;;;;12.57;9.20;;;486.80;2380.80;;;;;;5070253;28;20040;-58
2023/06/12 04:29:51;;;;;;;12.77;10.63;;;486.80;2380.80;;;;;;5070463;28;20024;-58
2023/06/12 04:32:17;;;;;;;11.93;9.70;;;486.90;2380.80;;;;;;5070938;28;20384;-58
2023/06/12 04:34:45;;;;;;;14.38;10.70;;;486.80;2380.80;;;;;;5070176;28;20020;-58
2023/06/12 04:37:13;;;;;;;18.30;10.55;;;486.90;2380.80;;;;;;5069271;28;20055;-58
2023/06/12 04:39:40;;;;;;;11.57;10.02;;;486.90;2380.80;;;;;;5069311;28;20071;-59
2023/06/12 04:42:07;;;;;;;13.65;9.73;;;486.90;2380.80;;;;;;5069678;28;20020;-58
2023/06/12 04:44:34;;;;;;;11.00;9.65;;;487.00;2380.80;;;;;;5069687;28;20012;-58
2023/06/12 04:47:14;;;;;;;9.80;8.30;;;487.10;2380.80;;;;;;5067578;28;20036;-58
2023/06/12 04:49:43;;;;;;;8.85;7.80;;;487.10;2380.80;;;;;;5068187;28;20066;-58
2023/06/12 04:52:09;;;;;;;8.20;6.90;;;487.00;2380.80;;;;;;5069389;28;20036;-57
2023/06/12 04:54:41;;;;;;;7.38;6.22;;;487.00;2380.80;;;;;;5069515;28;20016;-58
2023/06/12 04:57:08;;;;;;;7.50;6.50;;;486.90;2380.80;;;;;;5069534;28;20071;-59
2023/06/12 04:59:38;;;;;;;8.60;6.30;;;486.80;2380.80;;;;;;5069340;28;20082;-57
2023/06/12 05:02:06;;;;;;;7.55;6.10;;;486.80;2380.80;;;;;;5069345;28;20025;-58
2023/06/12 05:04:32;;;;;;;7.68;5.72;;;486.80;2380.80;;;;;;5068970;28;20059;-59
2023/06/12 05:06:59;;;;;;;8.07;6.38;;;486.80;2380.80;;;;;;5069128;28;20036;-59
2023/06/12 05:09:25;;;;;;;8.93;6.18;;;486.80;2380.80;;;;;;5055250;28;20096;-58
2023/06/12 05:11:51;;;;;;;7.65;6.20;;;486.80;2380.80;;;;;;5068781;28;20036;-58
2023/06/12 05:14:17;;;;;;;7.80;5.95;;;486.80;2380.80;;;;;;5069356;28;20528;-58
2023/06/12 05:16:46;;;;;;;8.55;5.93;;;486.90;2380.80;;;;;;5057299;28;20024;-58
2023/06/12 05:19:12;;;;;;;5.38;4.57;;;486.90;2380.80;;;;;;5067510;28;20096;-57
2023/06/12 05:21:41;;;;;;;6.50;4.70;;;486.90;2380.80;;;;;;5069054;28;20104;-58
2023/06/12 05:24:07;;;;;;;4.63;4.03;;;486.90;2380.80;;;;;;5068652;28;20056;-58
2023/06/12 05:26:33;;;;;;;6.53;4.25;;;486.90;2380.80;;;;;;5068797;28;20059;-58
2023/06/12 05:29:01;;;;;;;14.40;5.10;;;487.00;2380.80;;;;;;5068932;28;20434;-58
2023/06/12 05:31:28;;;;;;;5.07;4.13;;;487.00;2380.80;;;;;;5068899;28;20370;-58
2023/06/12 05:33:54;;;;;;;6.20;4.35;;;487.10;2380.80;;;;;;5068790;28;20025;-58
2023/06/12 05:36:20;;;;;;;7.30;4.18;;;487.10;2380.80;;;;;;5025070;28;1255553;-59
2023/06/12 05:38:46;;;;;;;5.00;4.20;;;487.00;2380.80;;;;;;5069100;28;20509;-58
2023/06/12 05:41:14;;;;;;;5.55;3.65;;;487.00;2380.80;;;;;;5069608;28;20032;-58
2023/06/12 05:43:40;;;;;;;4.85;3.60;;;486.90;2380.80;;;;;;5069175;28;20352;-59
2023/06/12 05:46:05;;;;;;;7.22;4.00;;;487.00;2380.80;;;;;;5069485;28;20032;-57
2023/06/12 05:48:31;;;;;;;6.05;4.72;;;486.80;2380.80;;;;;;5069075;28;20466;-57
2023/06/12 05:50:57;;;;;;;4.40;3.47;;;486.80;2380.80;;;;;;5069572;28;20024;-59
2023/06/12 05:53:22;;;;;;;4.38;3.38;;;486.80;2380.80;;;;;;5069249;28;20028;-58
2023/06/12 05:55:48;;;;;;;5.63;3.13;;;486.70;2380.80;;;;;;5069455;28;20036;-58
2023/06/12 05:58:14;;;;;;;4.20;2.97;;;486.80;2380.80;;;;;;5069007;28;20024;-59
2023/06/12 06:00:40;;;;;;;5.07;3.03;;;486.70;2380.80;;;;;;5068289;28;20017;-59
2023/06/12 06:03:06;;;;;;;4.00;3.03;;;486.60;2380.80;;;;;;5068776;28;20520;-57
2023/06/12 06:05:32;;;;;;;5.13;2.95;;;486.80;2380.80;;;;;;5069004;28;20023;-59
2023/06/12 06:07:58;;;;;;;3.75;2.88;;;486.80;2380.80;;;;;;5068763;28;20402;-60
2023/06/12 06:10:24;;;;;;;3.67;2.78;;;486.90;2380.80;;;;;;5068760;28;20046;-59
2023/06/12 06:12:52;;;;;;;3.30;2.33;;;487.00;2380.80;;;;;;5069258;28;20060;-61
2023/06/12 06:15:18;;;;;;;4.35;2.30;;;487.00;2380.80;;;;;;5068408;28;20161;-62
2023/06/12 06:17:44;;;;;;;4.10;2.60;;;487.10;2380.80;;;;;;5068978;28;20038;-62
2023/06/12 06:20:11;;;;;;;3.20;2.50;;;487.20;2380.80;;;;;;5067594;28;20043;-66
2023/06/12 06:22:38;;;;;;;3.25;2.22;;;487.20;2380.80;;;;;;5068877;28;20021;-62
2023/06/12 06:25:05;;;;;;;3.67;2.60;;;487.20;2380.80;;;;;;5068858;28;20410;-61
2023/06/12 06:27:31;;;;;;;3.92;3.10;;;487.20;2380.80;;;;;;5068697;28;20474;-61
2023/06/12 06:29:56;;;;;;;4.30;2.90;;;487.20;2380.80;;;;;;5068993;28;20070;-62
2023/06/12 06:32:22;;;;;;;6.53;2.90;;;487.30;2380.80;;;;;;5068304;28;20487;-67
2023/06/12 06:34:48;;;;;;;4.38;2.90;;;512.00;2380.80;;;;;;5068410;28;20375;-63
2023/06/12 06:37:14;;;;;;;4.18;3.33;;;512.10;2380.80;;;;;;5068504;28;20057;-61
2023/06/12 06:39:40;;;;;;;5.40;3.72;;;512.10;2380.80;;;;;;5068459;28;20466;-61
2023/06/12 06:42:06;;;;;;;8.77;3.38;;;512.20;2380.80;;;;;;5068997;28;20024;-61
2023/06/12 06:44:32;;;;;;;4.22;3.05;;;512.40;2380.80;;;;;;5068397;28;20122;-62
2023/06/12 06:46:57;;;;;;;6.40;3.05;;;512.40;2380.80;;;;;;5067958;28;20070;-62
2023/06/12 06:49:23;;;;;;;3.22;2.45;;;512.40;2380.80;;;;;;5068748;28;20031;-68
2023/06/12 06:51:49;;;;;;;4.82;2.40;;;512.50;2380.80;;;;;;5070188;28;20481;-62
2023/06/12 06:54:15;;;;;;;3.83;2.92;;;512.70;2380.80;;;;;;5072614;28;20025;-62
2023/06/12 06:56:40;;;;;;;4.18;3.00;;;512.70;2380.80;;;;;;5072089;28;20029;-62
2023/06/12 06:59:06;;;;;;;6.85;3.13;;;512.40;2380.80;;;;;;5072643;28;20020;-61
2023/06/12 07:01:33;;;;;;;5.75;2.80;;;512.30;2380.80;;;;;;5072768;28;20466;-63
2023/06/12 07:03:59;;;;;;;5.05;3.03;;;512.30;2380.80;;;;;;5072029;28;20061;-61
2023/06/12 07:06:26;;;;;;;5.65;2.72;;;512.30;2380.80;;;;;;5072596;28;20076;-61
2023/06/12 07:08:51;;;;;;;4.05;2.83;;;512.40;2380.80;;;;;;5071910;28;20024;-61
2023/06/12 07:11:17;;;;;;;3.50;2.72;;;512.30;2380.80;;;;;;5072453;28;20378;-63
2023/06/12 07:13:43;;;;;;;3.88;3.10;;;512.40;2380.80;;;;;;5072428;28;20020;-62
2023/06/12 07:16:08;;;;;;;3.05;2.42;;;512.60;2380.80;;;;;;5071919;28;20035;-62
2023/06/12 07:18:34;;;;;;;3.83;2.97;;;512.70;2380.80;;;;;;5072157;28;20058;-64
2023/06/12 07:21:00;;;;;;;4.38;3.00;;;512.60;2380.80;;;;;;5072302;28;20024;-61
2023/06/12 07:23:26;;;;;;;5.85;2.63;;;512.80;2380.80;;;;;;5071943;28;20028;-61
2023/06/12 07:25:52;;;;;;;5.70;2.70;;;512.80;2380.80;;;;;;5071796;28;20111;-62
2023/06/12 07:28:17;;;;;;;3.20;2.13;;;512.70;2380.80;;;;;;5071759;28;20032;-63
2023/06/12 07:30:43;;;;;;;3.72;2.13;;;512.70;2380.80;;;;;;5072089;28;20078;-63
2023/06/12 07:33:09;;;;;;;2.80;1.92;;;512.70;2380.80;;;;;;5071550;28;20472;-62
2023/06/12 07:35:35;;;;;;;2.97;1.92;;;512.80;2380.80;;;;;;5071448;28;20053;-62
2023/06/12 07:38:02;;;;;;;3.17;2.20;;;512.80;2380.80;;;;;;5071618;28;20356;-63
2023/06/12 07:40:28;;;;;;;3.92;1.70;;;512.80;2380.80;;;;;;5071880;28;20478;-63
2023/06/12 07:42:53;;;;;;;2.83;1.92;;;512.80;2380.80;;;;;;5071814;28;20313;-62
2023/06/12 07:45:19;;;;;;;2.95;1.92;;;537.60;2406.40;;;;;;5071518;28;20025;-61
2023/06/12 07:47:47;;;;;;;2.88;1.95;;;537.80;2406.40;;;;;;5071635;28;20029;-62
2023/06/12 07:50:13;;;;;;;3.10;2.10;;;537.70;2406.40;;;;;;5071589;28;20016;-62
2023/06/12 07:52:38;;;;;;;2.78;1.92;;;537.70;2406.40;;;;;;5071115;28;20103;-62
2023/06/12 07:55:05;;;;;;;2.22;1.50;;;512.90;2380.80;;;;;;5071572;28;20029;-62
2023/06/12 07:57:31;;;;;;;4.18;1.90;;;512.90;2380.80;;;;;;5071439;28;20032;-62
2023/06/12 07:59:57;;;;;;;3.03;2.25;;;537.60;2406.40;;;;;;5071153;28;20023;-62
2023/06/12 08:02:28;;;;;;;6.10;2.17;;;537.70;2406.40;;;;;;5070947;28;20111;-62
2023/06/12 08:04:55;;;;;;;3.42;2.00;;;537.60;2406.40;;;;;;5070800;28;20025;-64
2023/06/12 08:07:22;;;;;;;2.90;2.35;;;537.60;2406.40;;;;;;5070704;28;20547;-61
2023/06/12 08:09:47;;;;;;;3.05;2.10;;;537.70;2406.40;;;;;;5071081;28;20910;-61
2023/06/12 08:12:13;;;;;;;3.10;1.75;;;537.80;2406.40;;;;;;5071361;28;20027;-62
2023/06/12 08:14:39;;;;;;;2.58;1.90;;;537.80;2406.40;;;;;;5071023;28;20039;-62
2023/06/12 08:17:05;;;;;;;2.38;1.50;;;537.80;2406.40;;;;;;5071060;28;20028;-61
2023/06/12 08:19:32;;;;;;;2.58;1.67;;;537.90;2406.40;;;;;;5070572;28;20046;-62
2023/06/12 08:21:59;;;;;;;4.40;1.73;;;538.00;2406.40;;;;;;5071078;28;20043;-62
2023/06/12 08:24:29;;;;;;;2.58;1.90;;;537.90;2406.40;;;;;;5070840;28;20021;-62
2023/06/12 08:26:55;;;;;;;2.13;1.50;;;538.00;2406.40;;;;;;5070955;28;20032;-62
2023/06/12 08:29:21;;;;;;;2.42;1.73;;;538.50;2406.40;;;;;;5070013;28;20371;-61
2023/06/12 08:31:47;;;;;;;3.45;2.20;;;538.50;2406.40;;;;;;5070866;28;20025;-62
2023/06/12 08:34:12;;;;;;;3.08;2.38;;;538.20;2406.40;;;;;;5070137;28;20130;-62
2023/06/12 08:36:38;;;;;;;5.68;2.60;;;538.30;2406.40;;;;;;5070385;28;20051;-62
2023/06/12 08:39:04;;;;;;;2.90;2.30;;;538.10;2406.40;;;;;;5070449;28;20035;-62
2023/06/12 08:41:34;;;;;;;4.50;3.10;;;537.90;2406.40;;;;;;5070611;28;20017;-62
2023/06/12 08:44:01;;;;;;;4.70;3.28;;;537.70;2406.40;;;;;;5070515;28;20028;-62
2023/06/12 08:46:32;;;;;;;5.85;3.17;;;512.90;2380.80;;;;;;5070796;28;20033;-62
2023/06/12 08:49:00;;;;;;;6.68;3.35;;;537.60;2406.40;;;;;;5070446;28;20372;-62
2023/06/12 08:51:27;;;;;;;5.43;3.20;;;512.90;2380.80;;;;;;5070687;28;20071;-62
2023/06/12 08:53:55;;;;;;;4.85;3.45;;;537.60;2406.40;;;;;;5070342;28;20031;-62
2023/06/12 08:56:21;;;;;;;4.03;3.00;;;537.70;2406.40;;;;;;5070546;28;20029;-61
2023/06/12 08:58:47;;;;;;;4.53;3.30;;;537.80;2406.40;;;;;;5070213;28;20474;-64
2023/06/12 09:01:14;;;;;;;4.50;3.42;;;538.10;2406.40;;;;;;5052142;28;20039;-62
2023/06/12 09:03:47;;;;;;;3.67;3.25;;;538.30;2406.40;;;;;;5069236;28;20035;-62
2023/06/12 09:06:15;;;;;;;6.72;3.60;;;538.30;2406.40;;;;;;5070116;28;20074;-64
2023/06/12 09:08:41;;;;;;;5.10;3.30;;;538.40;2406.40;;;;;;5051707;28;20382;-65
2023/06/12 09:11:07;;;;;;;4.03;3.38;;;563.40;2432.00;;;;;;5070109;28;20021;-61
2023/06/12 09:13:41;;;;;;;3.90;3.40;;;563.50;2432.00;;;;;;5069352;28;20023;-68
2023/06/12 09:16:13;;;;;;;5.82;3.25;;;563.60;2432.00;;;;;;5069685;28;20056;-66
2023/06/12 09:18:52;;;;;;;4.88;2.80;;;563.50;2432.00;;;;;;5069585;28;20044;-67
2023/06/12 09:21:18;;;;;;;6.50;3.28;;;;;;;;;;5069417;28;20157;-62
2023/06/12 09:23:45;;;;;;;3.58;2.70;;;563.60;2432.00;;;;;;5069766;28;20028;-61
2023/06/12 09:26:15;;;;;;;3.63;2.67;;;563.60;2432.00;;;;;;5069468;28;20024;-61
2023/06/12 09:28:43;;;;;;;4.63;2.67;;;563.60;2432.00;;;;;;5069275;28;20471;-62
2023/06/12 09:31:08;;;;;;;5.03;3.83;;;563.40;2432.00;;;;;;5069388;28;20025;-61
2023/06/12 09:33:41;;;;;;;3.83;2.90;;;563.40;2432.00;;;;;;5069679;28;20162;-62
2023/06/12 09:36:19;;;;;;;4.32;3.20;;;538.50;2406.40;;;;;;5069449;28;20045;-61
2023/06/12 09:38:48;;;;;;;5.63;3.50;;;538.40;2406.40;;;;;;5069263;28;20035;-61
2023/06/12 09:41:14;;;;;;;5.05;3.17;;;538.10;2406.40;;;;;;5069330;28;20027;-61
2023/06/12 09:43:40;;;;;;;4.25;2.90;;;538.40;2406.40;;;;;;5069166;28;20021;-62
2023/06/12 09:46:08;;;;;;;4.50;3.65;;;538.40;2406.40;;;;;;5069389;28;20024;-61
2023/06/12 09:48:36;;;;;;;3.63;2.72;;;538.50;2406.40;;;;;;5051423;28;20047;-62
2023/06/12 09:51:09;;;;;;;3.65;2.50;;;538.50;2406.40;;;;;;5069004;28;20127;-61
2023/06/12 09:53:37;;;;;;;;;;;538.50;2406.40;;;;;;5069608;28;20035;-62
2023/06/12 09:56:07;;;;;;;4.55;3.20;;;538.50;2406.40;;;;;;5055832;28;19904;-61
2023/06/12 09:58:37;;;;;;;5.18;3.67;;;538.30;2406.40;;;;;;5069192;28;20082;-62
2023/06/12 10:01:08;;;;;;;7.70;4.57;;;538.00;2406.40;;;;;;5069278;28;20020;-61
2023/06/12 10:03:41;;;;;;;5.40;4.20;;;538.00;2406.40;;;;;;5068982;28;20422;-62
2023/06/12 10:06:08;;;;;;;;;;;538.00;2406.40;;;;;;5069721;28;20031;-65
2023/06/12 10:08:34;;;;;;;7.78;4.55;;;538.00;2406.40;;;;;;5068857;28;19904;-62
2023/06/12 10:11:02;;;;;;;5.38;4.68;;;537.90;2406.40;;;;;;5069197;28;20056;-66
2023/06/12 10:13:30;;;;;;;5.05;4.55;;;537.70;2406.40;;;;;;5069333;28;20433;-62
2023/06/12 10:15:56;;;;;;;6.30;4.78;;;537.60;2406.40;;;;;;5069408;28;20028;-63
2023/06/12 10:18:24;;;;;;;5.47;4.38;;;512.90;2380.80;;;;;;5068716;28;20016;-67
2023/06/12 10:20:52;;;;;;;6.43;4.65;;;512.80;2380.80;;;;;;5069130;28;20470;-68
2023/06/12 10:23:19;;;;;;;5.70;4.63;;;512.90;2380.80;;;;;;5068342;28;20020;-65
2023/06/12 10:25:46;;;;;;;6.15;5.25;;;512.80;2380.80;;;;;;5049795;28;20426;-67
2023/06/12 10:28:12;;;;;;;6.30;4.68;;;512.50;2380.80;;;;;;5066832;28;20071;-64
2023/06/12 10:30:38;;;;;;;6.35;5.10;;;512.60;2380.80;;;;;;5066583;28;20103;-63
2023/06/12 10:33:14;;;;;;;5.45;4.88;;;512.50;2380.80;;;;;;5067501;28;20132;-68
2023/06/12 10:35:40;;;;;;;6.88;4.40;;;512.40;2380.80;;;;;;5066655;28;20052;-66
2023/06/12 10:38:10;;;;;;;5.85;4.60;;;512.30;2380.80;;;;;;5054041;28;20025;-65
2023/06/12 10:40:38;;;;;;;6.97;4.75;;;512.30;2380.80;;;;;;5067545;28;20031;-64
2023/06/12 10:43:05;;;;;;;5.25;4.50;;;512.30;2380.80;;;;;;5067053;28;20032;-65
2023/06/12 10:45:32;;;;;;;5.35;4.50;;;512.30;2380.80;;;;;;5067133;28;20558;-67
2023/06/12 10:48:07;;;;;;;6.72;4.40;;;512.00;2380.80;;;;;;5067309;28;20128;-67
2023/06/12 10:50:37;;;;;;;8.02;4.95;;;512.00;2380.80;;;;;;5066801;28;20016;-65
2023/06/12 10:53:09;;;;;;;7.35;5.57;;;512.00;2380.80;;;;;;5066801;28;20054;-68
2023/06/12 10:55:36;;;;;;;4.93;4.20;;;512.30;2380.80;;;;;;5066815;28;20129;-65
2023/06/12 10:58:04;;;;;;;7.15;5.60;;;512.20;2380.80;;;;;;5049058;28;20017;-61
2023/06/12 11:00:42;;;;;;;9.13;5.95;;;487.30;2380.80;;;;;;5066638;28;20035;-62
2023/06/12 11:03:11;;;;;;;7.90;6.28;;;487.30;2380.80;;;;;;5067100;28;20119;-63
2023/06/12 11:05:38;;;;;;;9.43;7.05;;;512.10;2380.80;;;;;;5066873;28;20025;-64
2023/06/12 11:08:06;;;;;;;9.73;6.47;;;512.00;2380.80;;;;;;5066679;28;20078;-61
2023/06/12 11:10:33;;;;;;;9.77;7.30;;;487.20;2380.80;;;;;;5066973;28;20223;-64
2023/06/12 11:12:59;;;;;;;9.02;7.78;;;487.20;2380.80;;;;;;5066889;28;20047;-63
2023/06/12 11:15:25;;;;;;;10.20;7.93;;;487.10;2380.80;;;;;;5067052;28;20028;-61
2023/06/12 11:17:52;;;;;;;11.27;9.85;;;487.10;2380.80;;;;;;5066745;28;20025;-61
2023/06/12 11:20:20;;;;;;;10.13;8.70;;;487.10;2380.80;;;;;;5067331;28;20636;-62
2023/06/12 11:22:47;;;;;;;12.57;11.32;;;486.90;2380.80;;;;;;5066719;28;20025;-61
2023/06/12 11:25:13;;;;;;;8.48;7.55;;;486.90;2380.80;;;;;;5066732;28;20024;-63
2023/06/12 11:27:39;;;;;;;9.20;7.07;;;486.90;2380.80;;;;;;5066503;28;20486;-62
2023/06/12 11:30:13;;;;;;;10.50;7.43;;;486.90;2380.80;;;;;;5067035;28;20031;-68
2023/06/12 11:32:45;;;;;;;10.43;8.05;;;487.00;2380.80;;;;;;5066309;28;20102;-62
2023/06/12 11:35:11;;;;;;;8.68;7.68;;;487.20;2380.80;;;;;;5065786;28;20107;-61
2023/06/12 11:37:40;;;;;;;8.50;7.60;;;487.10;2380.80;;;;;;5068498;28;20028;-61
2023/06/12 11:40:09;;;;;;;10.98;6.70;;;487.00;2380.80;;;;;;5070509;28;20029;-61
2023/06/12 11:42:40;;;;;;;10.13;7.60;;;486.90;2380.80;;;;;;5070423;28;20043;-62
2023/06/12 11:45:13;;;;;;;9.77;8.38;;;486.70;2380.80;;;;;;5070191;28;20059;-61
2023/06/12 11:47:45;;;;;;;12.57;8.98;;;486.70;2380.80;;;;;;5069565;28;20036;-62
2023/06/12 11:50:19;;;;;;;9.60;7.75;;;486.80;2380.80;;;;;;5069923;28;20077;-62
2023/06/12 11:52:45;;;;;;;11.15;8.77;;;486.70;2380.80;;;;;;5070290;28;20036;-61
2023/06/12 11:55:14;;;;;;;12.88;10.05;;;486.90;2380.80;;;;;;5069836;28;20060;-62
2023/06/12 11:57:46;;;;;;;10.88;9.25;;;486.80;2380.80;;;;;;5069815;28;20021;-63
2023/06/12 12:00:14;;;;;;;13.73;10.13;;;486.90;2380.80;;;;;;5069282;28;20693;-64
2023/06/12 12:02:43;;;;;;;15.35;8.73;;;486.80;2380.80;;;;;;5068976;28;20036;-68
2023/06/12 12:05:11;;;;;;;10.35;9.20;;;486.80;2380.80;;;;;;5069136;28;20029;-62
2023/06/12 12:07:39;;;;;;;10.18;8.63;;;486.80;2380.80;;;;;;5069782;28;20063;-69
2023/06/12 12:10:07;;;;;;;11.30;10.10;;;486.80;2380.80;;;;;;5069974;28;20067;-67
2023/06/12 12:12:45;;;;;;;15.40;11.05;;;486.80;2380.80;;;;;;5069498;28;20075;-66